URWI

Details ICAO URWI (ESL)
Name ELISTA
Region Russia
Timezone Europe/Moscow (UTC+3.0)
Plans Departing 9
Arriving 8
Stats Elevation 501 ft / 153 m (AMSL)
Location 46.374210° 44.331387°
Runways 2
Magnetic Variation 8.257° E
Sunrise 2018-05-23 01:22:37 UTC / 2018-05-23 04:22:37 Local
Sunset 2018-05-23 16:39:04 UTC / 2018-05-23 19:39:04 Local
Advertisement - Login to hide

Runways

ID Width Length Bearing (true) Bearing (mag) Surface Threshold Offset Overrun Length
09 148 ft / 45 m 6,913 ft / 2,107 m 97.79° 89.53° Asphalt 0 ft / 0 m 0 ft / 0 m
09L 280 ft / 85 m 7,535 ft / 2,297 m 97.48° 89.22° Dirt 0 ft / 0 m 0 ft / 0 m
27 148 ft / 45 m 6,913 ft / 2,107 m 277.81° 269.55° Asphalt 0 ft / 0 m 160 ft / 49 m
27R 280 ft / 85 m 7,535 ft / 2,297 m 277.50° 269.24° Dirt 0 ft / 0 m 0 ft / 0 m

Map

Weather


0- 5 10 15 20 25 30 35+ Temperature / ° C

Clouds and Precipitation
Forecast for 2018-05-23 00:00 UTC. Updated an hour ago

Ground ~20,000 ft ~40,000 ft Winds

METAR

URWI 230000Z AUTO 12005MPS 9999 // ///110/// 18/08 Q1019

TAF

Not found

Frequencies

Tower 118.30 MHz TWR
Approach 124.20 MHz APP
Warning: Do not use this data for real-world aviation or navigation. No guarantee of current accuracy is given.